sensor_id;sensor_type;location;lat;lon;timestamp;P1;durP1;ratioP1;P2;durP2;ratioP2
72037;SDS011;59900;50.788;12.904;2022-12-19T00:01:31;6.47;;;2.43;;
72037;SDS011;59900;50.788;12.904;2022-12-19T00:03:59;4.97;;;2.53;;
72037;SDS011;59900;50.788;12.904;2022-12-19T00:06:27;5.80;;;2.50;;
72037;SDS011;59900;50.788;12.904;2022-12-19T00:08:54;7.07;;;2.80;;
72037;SDS011;59900;50.788;12.904;2022-12-19T00:11:20;8.20;;;2.55;;
72037;SDS011;59900;50.788;12.904;2022-12-19T00:13:47;7.77;;;3.53;;
72037;SDS011;59900;50.788;12.904;2022-12-19T00:16:17;6.82;;;2.72;;
72037;SDS011;59900;50.788;12.904;2022-12-19T00:18:44;8.65;;;3.40;;
72037;SDS011;59900;50.788;12.904;2022-12-19T00:21:11;8.40;;;3.33;;
72037;SDS011;59900;50.788;12.904;2022-12-19T00:23:38;9.40;;;3.60;;
72037;SDS011;59900;50.788;12.904;2022-12-19T00:26:11;8.40;;;3.60;;
72037;SDS011;59900;50.788;12.904;2022-12-19T00:28:38;9.38;;;3.60;;
72037;SDS011;59900;50.788;12.904;2022-12-19T00:31:05;10.18;;;3.63;;
72037;SDS011;59900;50.788;12.904;2022-12-19T00:33:30;9.27;;;3.20;;
72037;SDS011;59900;50.788;12.904;2022-12-19T00:35:59;8.48;;;3.40;;
72037;SDS011;59900;50.788;12.904;2022-12-19T00:38:26;9.73;;;3.60;;
72037;SDS011;59900;50.788;12.904;2022-12-19T00:40:52;8.47;;;3.50;;
72037;SDS011;59900;50.788;12.904;2022-12-19T00:43:17;8.88;;;3.95;;
72037;SDS011;59900;50.788;12.904;2022-12-19T00:45:43;10.03;;;4.33;;
72037;SDS011;59900;50.788;12.904;2022-12-19T00:48:08;10.23;;;4.57;;
72037;SDS011;59900;50.788;12.904;2022-12-19T00:50:33;9.07;;;3.50;;
72037;SDS011;59900;50.788;12.904;2022-12-19T00:52:59;13.33;;;4.20;;
72037;SDS011;59900;50.788;12.904;2022-12-19T00:55:24;10.50;;;4.47;;
72037;SDS011;59900;50.788;12.904;2022-12-19T00:57:50;10.07;;;4.13;;
72037;SDS011;59900;50.788;12.904;2022-12-19T01:00:15;10.30;;;4.05;;
72037;SDS011;59900;50.788;12.904;2022-12-19T01:02:41;10.48;;;4.13;;
72037;SDS011;59900;50.788;12.904;2022-12-19T01:05:07;13.17;;;4.87;;
72037;SDS011;59900;50.788;12.904;2022-12-19T01:07:34;13.80;;;4.90;;
72037;SDS011;59900;50.788;12.904;2022-12-19T01:10:00;10.32;;;3.95;;
72037;SDS011;59900;50.788;12.904;2022-12-19T01:12:25;13.30;;;5.23;;
72037;SDS011;59900;50.788;12.904;2022-12-19T01:15:09;13.98;;;5.63;;
72037;SDS011;59900;50.788;12.904;2022-12-19T01:17:35;11.97;;;5.20;;
72037;SDS011;59900;50.788;12.904;2022-12-19T01:20:00;12.53;;;5.20;;
72037;SDS011;59900;50.788;12.904;2022-12-19T01:22:25;13.23;;;5.33;;
72037;SDS011;59900;50.788;12.904;2022-12-19T01:24:51;16.10;;;5.77;;
72037;SDS011;59900;50.788;12.904;2022-12-19T01:27:16;13.07;;;5.60;;
72037;SDS011;59900;50.788;12.904;2022-12-19T01:29:41;12.63;;;5.80;;
72037;SDS011;59900;50.788;12.904;2022-12-19T01:32:06;12.40;;;5.43;;
72037;SDS011;59900;50.788;12.904;2022-12-19T01:34:32;15.07;;;5.97;;
72037;SDS011;59900;50.788;12.904;2022-12-19T01:36:57;15.47;;;6.17;;
72037;SDS011;59900;50.788;12.904;2022-12-19T01:39:22;16.00;;;6.47;;
72037;SDS011;59900;50.788;12.904;2022-12-19T01:41:47;13.57;;;6.00;;
72037;SDS011;59900;50.788;12.904;2022-12-19T01:44:13;15.10;;;6.57;;
72037;SDS011;59900;50.788;12.904;2022-12-19T01:46:42;14.37;;;6.10;;
72037;SDS011;59900;50.788;12.904;2022-12-19T01:51:59;13.73;;;5.97;;
72037;SDS011;59900;50.788;12.904;2022-12-19T01:54:36;15.20;;;6.80;;
72037;SDS011;59900;50.788;12.904;2022-12-19T01:57:06;13.70;;;6.10;;
72037;SDS011;59900;50.788;12.904;2022-12-19T01:59:38;14.00;;;6.38;;
72037;SDS011;59900;50.788;12.904;2022-12-19T02:02:09;14.35;;;5.78;;
72037;SDS011;59900;50.788;12.904;2022-12-19T02:04:42;15.55;;;6.63;;
72037;SDS011;59900;50.788;12.904;2022-12-19T02:07:09;17.30;;;6.32;;
72037;SDS011;59900;50.788;12.904;2022-12-19T02:09:35;15.10;;;6.30;;
72037;SDS011;59900;50.788;12.904;2022-12-19T02:12:01;12.90;;;6.03;;
72037;SDS011;59900;50.788;12.904;2022-12-19T02:14:27;13.80;;;5.85;;
72037;SDS011;59900;50.788;12.904;2022-12-19T02:16:54;15.25;;;6.82;;
72037;SDS011;59900;50.788;12.904;2022-12-19T02:19:34;15.67;;;6.13;;
72037;SDS011;59900;50.788;12.904;2022-12-19T02:22:21;14.38;;;5.90;;
72037;SDS011;59900;50.788;12.904;2022-12-19T02:34:02;13.60;;;5.73;;
72037;SDS011;59900;50.788;12.904;2022-12-19T02:36:31;15.68;;;6.07;;
72037;SDS011;59900;50.788;12.904;2022-12-19T02:39:06;14.93;;;6.00;;
72037;SDS011;59900;50.788;12.904;2022-12-19T02:41:38;12.48;;;5.20;;
72037;SDS011;59900;50.788;12.904;2022-12-19T02:44:19;13.07;;;5.82;;
72037;SDS011;59900;50.788;12.904;2022-12-19T02:46:49;13.63;;;5.27;;
72037;SDS011;59900;50.788;12.904;2022-12-19T02:49:16;14.88;;;5.22;;
72037;SDS011;59900;50.788;12.904;2022-12-19T02:51:41;12.33;;;6.17;;
72037;SDS011;59900;50.788;12.904;2022-12-19T02:54:06;11.97;;;5.80;;
72037;SDS011;59900;50.788;12.904;2022-12-19T02:56:35;13.02;;;5.85;;
72037;SDS011;59900;50.788;12.904;2022-12-19T02:59:17;14.25;;;5.20;;
72037;SDS011;59900;50.788;12.904;2022-12-19T03:02:03;14.85;;;5.65;;
72037;SDS011;59900;50.788;12.904;2022-12-19T03:04:43;14.80;;;6.30;;
72037;SDS011;59900;50.788;12.904;2022-12-19T03:10:09;14.43;;;5.93;;
72037;SDS011;59900;50.788;12.904;2022-12-19T03:12:44;13.90;;;6.07;;
72037;SDS011;59900;50.788;12.904;2022-12-19T03:15:16;16.33;;;7.18;;
72037;SDS011;59900;50.788;12.904;2022-12-19T03:17:43;17.80;;;6.03;;
72037;SDS011;59900;50.788;12.904;2022-12-19T03:20:16;17.65;;;6.93;;
72037;SDS011;59900;50.788;12.904;2022-12-19T03:22:49;14.88;;;5.53;;
72037;SDS011;59900;50.788;12.904;2022-12-19T03:25:15;13.70;;;5.83;;
72037;SDS011;59900;50.788;12.904;2022-12-19T03:27:41;17.55;;;6.85;;
72037;SDS011;59900;50.788;12.904;2022-12-19T03:30:13;16.65;;;6.70;;
72037;SDS011;59900;50.788;12.904;2022-12-19T03:32:39;14.05;;;6.95;;
72037;SDS011;59900;50.788;12.904;2022-12-19T03:37:42;16.43;;;7.13;;
72037;SDS011;59900;50.788;12.904;2022-12-19T03:40:13;16.95;;;7.65;;
72037;SDS011;59900;50.788;12.904;2022-12-19T03:42:41;16.25;;;6.65;;
72037;SDS011;59900;50.788;12.904;2022-12-19T03:45:46;15.80;;;6.10;;
72037;SDS011;59900;50.788;12.904;2022-12-19T03:51:06;14.90;;;6.57;;
72037;SDS011;59900;50.788;12.904;2022-12-19T03:57:27;15.48;;;6.43;;
72037;SDS011;59900;50.788;12.904;2022-12-19T03:59:44;13.48;;;6.25;;
72037;SDS011;59900;50.788;12.904;2022-12-19T04:02:24;15.57;;;7.15;;
72037;SDS011;59900;50.788;12.904;2022-12-19T04:04:52;15.10;;;6.97;;
72037;SDS011;59900;50.788;12.904;2022-12-19T04:07:21;15.77;;;6.63;;
72037;SDS011;59900;50.788;12.904;2022-12-19T04:09:47;17.40;;;7.28;;
72037;SDS011;59900;50.788;12.904;2022-12-19T04:12:15;17.23;;;6.70;;
72037;SDS011;59900;50.788;12.904;2022-12-19T04:14:44;14.65;;;6.18;;
72037;SDS011;59900;50.788;12.904;2022-12-19T04:20:02;17.83;;;6.35;;
72037;SDS011;59900;50.788;12.904;2022-12-19T04:22:35;16.90;;;6.95;;
72037;SDS011;59900;50.788;12.904;2022-12-19T04:25:06;15.73;;;5.97;;
72037;SDS011;59900;50.788;12.904;2022-12-19T04:27:36;17.35;;;6.90;;
72037;SDS011;59900;50.788;12.904;2022-12-19T04:30:05;14.05;;;6.47;;
72037;SDS011;59900;50.788;12.904;2022-12-19T04:32:31;15.65;;;6.85;;
72037;SDS011;59900;50.788;12.904;2022-12-19T04:34:59;20.30;;;6.25;;
72037;SDS011;59900;50.788;12.904;2022-12-19T04:37:24;17.37;;;6.77;;
72037;SDS011;59900;50.788;12.904;2022-12-19T04:39:49;17.77;;;7.30;;
72037;SDS011;59900;50.788;12.904;2022-12-19T04:42:15;14.53;;;6.23;;
72037;SDS011;59900;50.788;12.904;2022-12-19T04:44:40;16.77;;;6.60;;
72037;SDS011;59900;50.788;12.904;2022-12-19T04:47:05;15.40;;;7.10;;
72037;SDS011;59900;50.788;12.904;2022-12-19T04:49:31;15.30;;;6.90;;
72037;SDS011;59900;50.788;12.904;2022-12-19T04:51:56;14.73;;;6.77;;
72037;SDS011;59900;50.788;12.904;2022-12-19T04:54:21;17.63;;;7.33;;
72037;SDS011;59900;50.788;12.904;2022-12-19T04:56:46;16.50;;;7.00;;
72037;SDS011;59900;50.788;12.904;2022-12-19T04:59:12;15.00;;;6.53;;
72037;SDS011;59900;50.788;12.904;2022-12-19T05:01:37;16.40;;;7.03;;
72037;SDS011;59900;50.788;12.904;2022-12-19T05:04:02;17.15;;;7.05;;
72037;SDS011;59900;50.788;12.904;2022-12-19T05:06:28;16.50;;;7.10;;
72037;SDS011;59900;50.788;12.904;2022-12-19T05:08:53;17.37;;;6.43;;
72037;SDS011;59900;50.788;12.904;2022-12-19T05:11:19;15.50;;;6.63;;
72037;SDS011;59900;50.788;12.904;2022-12-19T05:13:44;17.87;;;7.33;;
72037;SDS011;59900;50.788;12.904;2022-12-19T05:16:10;17.23;;;6.80;;
72037;SDS011;59900;50.788;12.904;2022-12-19T05:18:37;14.47;;;6.70;;
72037;SDS011;59900;50.788;12.904;2022-12-19T05:21:03;19.02;;;7.03;;
72037;SDS011;59900;50.788;12.904;2022-12-19T05:23:29;17.90;;;7.53;;
72037;SDS011;59900;50.788;12.904;2022-12-19T05:25:58;17.40;;;6.73;;
72037;SDS011;59900;50.788;12.904;2022-12-19T05:28:24;18.42;;;7.32;;
72037;SDS011;59900;50.788;12.904;2022-12-19T05:30:50;17.13;;;6.77;;
72037;SDS011;59900;50.788;12.904;2022-12-19T05:33:15;16.70;;;6.77;;
72037;SDS011;59900;50.788;12.904;2022-12-19T05:35:40;14.80;;;6.87;;
72037;SDS011;59900;50.788;12.904;2022-12-19T05:38:06;16.20;;;6.40;;
72037;SDS011;59900;50.788;12.904;2022-12-19T05:40:31;14.40;;;5.97;;
72037;SDS011;59900;50.788;12.904;2022-12-19T05:42:57;16.07;;;5.90;;
72037;SDS011;59900;50.788;12.904;2022-12-19T05:45:22;16.73;;;6.70;;
72037;SDS011;59900;50.788;12.904;2022-12-19T05:47:47;15.93;;;6.15;;
72037;SDS011;59900;50.788;12.904;2022-12-19T05:50:13;15.13;;;6.10;;
72037;SDS011;59900;50.788;12.904;2022-12-19T05:52:40;16.15;;;7.00;;
72037;SDS011;59900;50.788;12.904;2022-12-19T05:55:06;14.43;;;6.87;;
72037;SDS011;59900;50.788;12.904;2022-12-19T05:57:32;16.43;;;6.80;;
72037;SDS011;59900;50.788;12.904;2022-12-19T05:59:58;14.57;;;6.28;;
72037;SDS011;59900;50.788;12.904;2022-12-19T06:02:23;16.83;;;5.90;;
72037;SDS011;59900;50.788;12.904;2022-12-19T06:04:48;13.47;;;6.13;;
72037;SDS011;59900;50.788;12.904;2022-12-19T06:07:14;16.10;;;6.00;;
72037;SDS011;59900;50.788;12.904;2022-12-19T06:09:39;13.33;;;5.83;;
72037;SDS011;59900;50.788;12.904;2022-12-19T06:12:04;12.60;;;5.23;;
72037;SDS011;59900;50.788;12.904;2022-12-19T06:14:30;15.17;;;6.53;;
72037;SDS011;59900;50.788;12.904;2022-12-19T06:16:55;14.20;;;5.23;;
72037;SDS011;59900;50.788;12.904;2022-12-19T06:19:21;11.30;;;5.10;;
72037;SDS011;59900;50.788;12.904;2022-12-19T06:21:46;15.47;;;5.80;;
72037;SDS011;59900;50.788;12.904;2022-12-19T06:24:11;13.50;;;6.07;;
72037;SDS011;59900;50.788;12.904;2022-12-19T06:26:37;13.85;;;6.03;;
72037;SDS011;59900;50.788;12.904;2022-12-19T06:29:02;15.03;;;6.50;;
72037;SDS011;59900;50.788;12.904;2022-12-19T06:31:27;14.23;;;6.60;;
72037;SDS011;59900;50.788;12.904;2022-12-19T06:33:53;14.70;;;6.50;;
72037;SDS011;59900;50.788;12.904;2022-12-19T06:36:25;17.33;;;6.18;;
72037;SDS011;59900;50.788;12.904;2022-12-19T06:38:55;15.77;;;5.90;;
72037;SDS011;59900;50.788;12.904;2022-12-19T06:41:22;13.57;;;6.50;;
72037;SDS011;59900;50.788;12.904;2022-12-19T06:44:06;14.00;;;5.88;;
72037;SDS011;59900;50.788;12.904;2022-12-19T06:46:34;14.38;;;5.95;;
72037;SDS011;59900;50.788;12.904;2022-12-19T06:49:01;14.50;;;5.70;;
72037;SDS011;59900;50.788;12.904;2022-12-19T06:51:27;15.40;;;5.80;;
72037;SDS011;59900;50.788;12.904;2022-12-19T06:53:52;12.93;;;6.00;;
72037;SDS011;59900;50.788;12.904;2022-12-19T06:56:17;12.00;;;5.67;;
72037;SDS011;59900;50.788;12.904;2022-12-19T06:58:44;12.35;;;5.25;;
72037;SDS011;59900;50.788;12.904;2022-12-19T07:01:16;10.93;;;5.00;;
72037;SDS011;59900;50.788;12.904;2022-12-19T07:03:49;13.80;;;5.55;;
72037;SDS011;59900;50.788;12.904;2022-12-19T07:06:14;13.37;;;5.03;;
72037;SDS011;59900;50.788;12.904;2022-12-19T07:08:40;11.07;;;4.85;;
72037;SDS011;59900;50.788;12.904;2022-12-19T07:11:05;10.67;;;4.37;;
72037;SDS011;59900;50.788;12.904;2022-12-19T07:13:30;9.50;;;3.90;;
72037;SDS011;59900;50.788;12.904;2022-12-19T07:15:59;9.33;;;4.23;;
72037;SDS011;59900;50.788;12.904;2022-12-19T07:18:27;10.48;;;4.57;;
72037;SDS011;59900;50.788;12.904;2022-12-19T07:20:56;12.20;;;4.10;;
72037;SDS011;59900;50.788;12.904;2022-12-19T07:23:21;9.45;;;3.72;;
72037;SDS011;59900;50.788;12.904;2022-12-19T07:25:47;9.90;;;3.80;;
72037;SDS011;59900;50.788;12.904;2022-12-19T07:28:13;9.18;;;3.53;;
72037;SDS011;59900;50.788;12.904;2022-12-19T07:30:39;10.37;;;4.23;;
72037;SDS011;59900;50.788;12.904;2022-12-19T07:33:04;8.87;;;3.90;;
72037;SDS011;59900;50.788;12.904;2022-12-19T07:35:29;12.27;;;3.90;;
72037;SDS011;59900;50.788;12.904;2022-12-19T07:37:59;8.02;;;3.30;;
72037;SDS011;59900;50.788;12.904;2022-12-19T07:40:28;8.93;;;3.97;;
72037;SDS011;59900;50.788;12.904;2022-12-19T07:42:54;9.00;;;4.30;;
72037;SDS011;59900;50.788;12.904;2022-12-19T07:45:22;9.77;;;3.80;;
72037;SDS011;59900;50.788;12.904;2022-12-19T07:47:48;8.90;;;3.63;;
72037;SDS011;59900;50.788;12.904;2022-12-19T07:50:13;9.03;;;3.50;;
72037;SDS011;59900;50.788;12.904;2022-12-19T07:52:38;10.02;;;3.80;;
72037;SDS011;59900;50.788;12.904;2022-12-19T07:55:04;8.60;;;3.50;;
72037;SDS011;59900;50.788;12.904;2022-12-19T07:57:29;8.47;;;3.83;;
72037;SDS011;59900;50.788;12.904;2022-12-19T07:59:54;9.67;;;4.57;;
72037;SDS011;59900;50.788;12.904;2022-12-19T08:02:19;10.13;;;4.07;;
72037;SDS011;59900;50.788;12.904;2022-12-19T08:04:45;11.43;;;4.63;;
72037;SDS011;59900;50.788;12.904;2022-12-19T08:07:10;10.20;;;3.97;;
72037;SDS011;59900;50.788;12.904;2022-12-19T08:09:36;11.15;;;4.85;;
72037;SDS011;59900;50.788;12.904;2022-12-19T08:12:01;9.27;;;4.53;;
72037;SDS011;59900;50.788;12.904;2022-12-19T08:14:27;10.60;;;4.67;;
72037;SDS011;59900;50.788;12.904;2022-12-19T08:16:52;10.50;;;4.80;;
72037;SDS011;59900;50.788;12.904;2022-12-19T08:19:17;10.33;;;4.10;;
72037;SDS011;59900;50.788;12.904;2022-12-19T08:21:43;10.30;;;4.47;;
72037;SDS011;59900;50.788;12.904;2022-12-19T08:24:08;10.30;;;4.25;;
72037;SDS011;59900;50.788;12.904;2022-12-19T08:26:33;9.03;;;4.33;;
72037;SDS011;59900;50.788;12.904;2022-12-19T08:28:59;10.13;;;4.27;;
72037;SDS011;59900;50.788;12.904;2022-12-19T08:31:25;11.60;;;4.87;;
72037;SDS011;59900;50.788;12.904;2022-12-19T08:33:52;10.02;;;4.68;;
72037;SDS011;59900;50.788;12.904;2022-12-19T08:36:18;11.23;;;4.70;;
72037;SDS011;59900;50.788;12.904;2022-12-19T08:38:44;12.33;;;5.60;;
72037;SDS011;59900;50.788;12.904;2022-12-19T08:41:10;12.52;;;5.05;;
72037;SDS011;59900;50.788;12.904;2022-12-19T08:43:35;10.93;;;5.10;;
72037;SDS011;59900;50.788;12.904;2022-12-19T08:46:02;14.68;;;5.30;;
72037;SDS011;59900;50.788;12.904;2022-12-19T08:48:27;12.30;;;4.83;;
72037;SDS011;59900;50.788;12.904;2022-12-19T08:50:54;13.07;;;5.47;;
72037;SDS011;59900;50.788;12.904;2022-12-19T08:53:21;11.98;;;5.18;;
72037;SDS011;59900;50.788;12.904;2022-12-19T08:55:52;12.43;;;4.38;;
72037;SDS011;59900;50.788;12.904;2022-12-19T08:58:19;13.48;;;6.03;;
72037;SDS011;59900;50.788;12.904;2022-12-19T09:00:45;12.73;;;5.90;;
72037;SDS011;59900;50.788;12.904;2022-12-19T09:03:10;11.33;;;5.60;;
72037;SDS011;59900;50.788;12.904;2022-12-19T09:05:35;14.00;;;5.20;;
72037;SDS011;59900;50.788;12.904;2022-12-19T09:08:02;13.15;;;5.72;;
72037;SDS011;59900;50.788;12.904;2022-12-19T09:10:27;13.13;;;6.33;;
72037;SDS011;59900;50.788;12.904;2022-12-19T09:12:54;12.82;;;6.03;;
72037;SDS011;59900;50.788;12.904;2022-12-19T09:15:19;14.97;;;6.10;;
72037;SDS011;59900;50.788;12.904;2022-12-19T09:17:44;14.87;;;6.13;;
72037;SDS011;59900;50.788;12.904;2022-12-19T09:20:10;12.00;;;5.90;;
72037;SDS011;59900;50.788;12.904;2022-12-19T09:22:36;12.25;;;5.60;;
72037;SDS011;59900;50.788;12.904;2022-12-19T09:25:01;13.07;;;5.77;;
72037;SDS011;59900;50.788;12.904;2022-12-19T09:27:26;14.23;;;5.90;;
72037;SDS011;59900;50.788;12.904;2022-12-19T09:29:51;12.63;;;5.37;;
72037;SDS011;59900;50.788;12.904;2022-12-19T09:32:17;10.90;;;5.53;;
72037;SDS011;59900;50.788;12.904;2022-12-19T09:34:42;10.90;;;5.47;;
72037;SDS011;59900;50.788;12.904;2022-12-19T09:37:08;13.00;;;5.50;;
72037;SDS011;59900;50.788;12.904;2022-12-19T09:39:35;11.10;;;5.40;;
72037;SDS011;59900;50.788;12.904;2022-12-19T09:43:01;11.67;;;5.00;;
72037;SDS011;59900;50.788;12.904;2022-12-19T09:47:41;12.05;;;4.90;;
72037;SDS011;59900;50.788;12.904;2022-12-19T09:52:58;9.27;;;4.45;;
72037;SDS011;59900;50.788;12.904;2022-12-19T09:55:32;12.10;;;5.03;;
72037;SDS011;59900;50.788;12.904;2022-12-19T10:00:49;12.25;;;4.60;;
72037;SDS011;59900;50.788;12.904;2022-12-19T10:03:18;14.47;;;5.03;;
72037;SDS011;59900;50.788;12.904;2022-12-19T10:08:27;11.50;;;4.90;;
72037;SDS011;59900;50.788;12.904;2022-12-19T10:11:09;10.45;;;4.82;;
72037;SDS011;59900;50.788;12.904;2022-12-19T10:16:42;13.77;;;6.07;;
72037;SDS011;59900;50.788;12.904;2022-12-19T10:19:13;10.55;;;4.68;;
72037;SDS011;59900;50.788;12.904;2022-12-19T10:22:05;13.98;;;5.45;;
72037;SDS011;59900;50.788;12.904;2022-12-19T10:27:45;12.23;;;5.30;;
72037;SDS011;59900;50.788;12.904;2022-12-19T10:30:18;12.40;;;5.37;;
72037;SDS011;59900;50.788;12.904;2022-12-19T10:32:51;14.75;;;6.18;;
72037;SDS011;59900;50.788;12.904;2022-12-19T10:35:30;12.00;;;5.35;;
72037;SDS011;59900;50.788;12.904;2022-12-19T10:40:43;13.30;;;6.05;;
72037;SDS011;59900;50.788;12.904;2022-12-19T10:43:14;13.60;;;5.63;;
72037;SDS011;59900;50.788;12.904;2022-12-19T10:45:48;13.10;;;5.50;;
72037;SDS011;59900;50.788;12.904;2022-12-19T10:48:19;11.85;;;5.60;;
72037;SDS011;59900;50.788;12.904;2022-12-19T10:50:45;13.20;;;4.95;;
72037;SDS011;59900;50.788;12.904;2022-12-19T10:53:11;14.60;;;5.87;;
72037;SDS011;59900;50.788;12.904;2022-12-19T10:55:48;11.38;;;5.10;;
72037;SDS011;59900;50.788;12.904;2022-12-19T11:03:37;10.55;;;4.72;;
72037;SDS011;59900;50.788;12.904;2022-12-19T11:06:05;13.27;;;5.63;;
72037;SDS011;59900;50.788;12.904;2022-12-19T11:08:50;11.75;;;5.57;;
72037;SDS011;59900;50.788;12.904;2022-12-19T11:11:16;14.27;;;6.03;;
72037;SDS011;59900;50.788;12.904;2022-12-19T11:13:43;14.43;;;6.03;;
72037;SDS011;59900;50.788;12.904;2022-12-19T11:16:10;15.48;;;6.78;;
72037;SDS011;59900;50.788;12.904;2022-12-19T11:18:46;17.63;;;8.27;;
72037;SDS011;59900;50.788;12.904;2022-12-19T11:21:19;17.90;;;7.80;;
72037;SDS011;59900;50.788;12.904;2022-12-19T11:23:54;16.10;;;7.97;;
72037;SDS011;59900;50.788;12.904;2022-12-19T11:29:16;18.13;;;7.28;;
72037;SDS011;59900;50.788;12.904;2022-12-19T11:31:47;16.67;;;6.95;;
72037;SDS011;59900;50.788;12.904;2022-12-19T11:34:19;12.93;;;5.50;;
72037;SDS011;59900;50.788;12.904;2022-12-19T11:37:02;13.97;;;5.67;;
72037;SDS011;59900;50.788;12.904;2022-12-19T11:39:35;14.38;;;6.82;;
72037;SDS011;59900;50.788;12.904;2022-12-19T11:42:22;16.48;;;6.88;;
72037;SDS011;59900;50.788;12.904;2022-12-19T11:44:59;17.23;;;6.90;;
72037;SDS011;59900;50.788;12.904;2022-12-19T11:47:46;16.52;;;6.35;;
72037;SDS011;59900;50.788;12.904;2022-12-19T11:50:17;12.13;;;5.40;;
72037;SDS011;59900;50.788;12.904;2022-12-19T11:55:20;16.98;;;6.32;;
72037;SDS011;59900;50.788;12.904;2022-12-19T11:57:48;15.32;;;7.00;;
72037;SDS011;59900;50.788;12.904;2022-12-19T12:00:16;16.10;;;7.32;;
72037;SDS011;59900;50.788;12.904;2022-12-19T12:05:40;16.63;;;6.63;;
72037;SDS011;59900;50.788;12.904;2022-12-19T12:14:00;16.48;;;6.53;;
72037;SDS011;59900;50.788;12.904;2022-12-19T12:21:44;17.65;;;7.63;;
72037;SDS011;59900;50.788;12.904;2022-12-19T12:24:37;17.75;;;7.13;;
72037;SDS011;59900;50.788;12.904;2022-12-19T12:30:12;14.10;;;6.13;;
72037;SDS011;59900;50.788;12.904;2022-12-19T12:33:00;16.02;;;6.25;;
72037;SDS011;59900;50.788;12.904;2022-12-19T12:35:41;18.35;;;6.85;;
72037;SDS011;59900;50.788;12.904;2022-12-19T12:44:20;17.73;;;7.07;;
72037;SDS011;59900;50.788;12.904;2022-12-19T12:46:50;16.80;;;7.55;;
72037;SDS011;59900;50.788;12.904;2022-12-19T12:49:32;16.83;;;7.63;;
72037;SDS011;59900;50.788;12.904;2022-12-19T12:52:02;36.60;;;14.65;;
72037;SDS011;59900;50.788;12.904;2022-12-19T12:54:32;18.10;;;7.38;;
72037;SDS011;59900;50.788;12.904;2022-12-19T12:57:01;19.57;;;7.57;;
72037;SDS011;59900;50.788;12.904;2022-12-19T12:59:27;18.58;;;8.23;;
72037;SDS011;59900;50.788;12.904;2022-12-19T13:01:58;18.40;;;8.15;;
72037;SDS011;59900;50.788;12.904;2022-12-19T13:04:40;20.10;;;7.75;;
72037;SDS011;59900;50.788;12.904;2022-12-19T13:07:41;19.00;;;8.50;;
72037;SDS011;59900;50.788;12.904;2022-12-19T13:12:37;19.67;;;8.35;;
72037;SDS011;59900;50.788;12.904;2022-12-19T13:22:42;18.90;;;7.33;;
72037;SDS011;59900;50.788;12.904;2022-12-19T13:27:50;16.33;;;6.47;;
72037;SDS011;59900;50.788;12.904;2022-12-19T13:30:29;15.73;;;6.27;;
72037;SDS011;59900;50.788;12.904;2022-12-19T13:40:27;13.80;;;6.22;;
72037;SDS011;59900;50.788;12.904;2022-12-19T13:45:56;14.98;;;6.25;;
72037;SDS011;59900;50.788;12.904;2022-12-19T13:48:25;15.10;;;6.13;;
72037;SDS011;59900;50.788;12.904;2022-12-19T13:50:59;18.95;;;6.72;;
72037;SDS011;59900;50.788;12.904;2022-12-19T13:53:29;18.60;;;6.93;;
72037;SDS011;59900;50.788;12.904;2022-12-19T13:55:56;14.80;;;7.33;;
72037;SDS011;59900;50.788;12.904;2022-12-19T13:58:28;15.63;;;6.47;;
72037;SDS011;59900;50.788;12.904;2022-12-19T14:00:56;17.38;;;6.78;;
72037;SDS011;59900;50.788;12.904;2022-12-19T14:03:31;15.85;;;7.32;;
72037;SDS011;59900;50.788;12.904;2022-12-19T14:06:08;16.10;;;6.97;;
72037;SDS011;59900;50.788;12.904;2022-12-19T14:08:45;20.15;;;7.80;;
72037;SDS011;59900;50.788;12.904;2022-12-19T14:11:14;18.60;;;7.68;;
72037;SDS011;59900;50.788;12.904;2022-12-19T14:17:05;21.73;;;8.35;;
72037;SDS011;59900;50.788;12.904;2022-12-19T14:19:35;20.57;;;8.37;;
72037;SDS011;59900;50.788;12.904;2022-12-19T14:22:12;22.13;;;10.13;;
72037;SDS011;59900;50.788;12.904;2022-12-19T14:24:52;18.70;;;8.05;;
72037;SDS011;59900;50.788;12.904;2022-12-19T14:30:05;17.63;;;7.53;;
72037;SDS011;59900;50.788;12.904;2022-12-19T14:32:39;17.47;;;7.97;;
72037;SDS011;59900;50.788;12.904;2022-12-19T14:35:07;14.30;;;7.07;;
72037;SDS011;59900;50.788;12.904;2022-12-19T14:37:39;19.67;;;7.50;;
72037;SDS011;59900;50.788;12.904;2022-12-19T14:40:20;17.83;;;8.30;;
72037;SDS011;59900;50.788;12.904;2022-12-19T14:42:45;18.67;;;7.93;;
72037;SDS011;59900;50.788;12.904;2022-12-19T14:45:39;15.27;;;6.77;;
72037;SDS011;59900;50.788;12.904;2022-12-19T14:48:25;19.83;;;7.95;;
72037;SDS011;59900;50.788;12.904;2022-12-19T14:51:02;17.77;;;8.13;;
72037;SDS011;59900;50.788;12.904;2022-12-19T14:53:29;20.23;;;8.77;;
72037;SDS011;59900;50.788;12.904;2022-12-19T14:56:28;18.37;;;7.37;;
72037;SDS011;59900;50.788;12.904;2022-12-19T14:58:56;17.30;;;7.07;;
72037;SDS011;59900;50.788;12.904;2022-12-19T15:01:23;20.40;;;7.78;;
72037;SDS011;59900;50.788;12.904;2022-12-19T15:03:58;18.90;;;8.17;;
72037;SDS011;59900;50.788;12.904;2022-12-19T15:06:27;21.98;;;10.95;;
72037;SDS011;59900;50.788;12.904;2022-12-19T15:09:01;25.48;;;11.25;;
72037;SDS011;59900;50.788;12.904;2022-12-19T15:11:31;22.23;;;9.63;;
72037;SDS011;59900;50.788;12.904;2022-12-19T15:14:26;21.30;;;9.52;;
72037;SDS011;59900;50.788;12.904;2022-12-19T15:17:01;17.53;;;8.50;;
72037;SDS011;59900;50.788;12.904;2022-12-19T15:19:28;20.65;;;8.65;;
72037;SDS011;59900;50.788;12.904;2022-12-19T15:21:53;19.33;;;9.27;;
72037;SDS011;59900;50.788;12.904;2022-12-19T15:24:18;25.27;;;10.47;;
72037;SDS011;59900;50.788;12.904;2022-12-19T15:26:49;23.77;;;9.20;;
72037;SDS011;59900;50.788;12.904;2022-12-19T15:29:16;23.95;;;8.52;;
72037;SDS011;59900;50.788;12.904;2022-12-19T15:31:42;17.92;;;8.27;;
72037;SDS011;59900;50.788;12.904;2022-12-19T15:34:24;21.02;;;9.00;;
72037;SDS011;59900;50.788;12.904;2022-12-19T15:36:52;21.70;;;8.83;;
72037;SDS011;59900;50.788;12.904;2022-12-19T15:39:18;24.40;;;10.57;;
72037;SDS011;59900;50.788;12.904;2022-12-19T15:41:45;22.20;;;9.18;;
72037;SDS011;59900;50.788;12.904;2022-12-19T15:44:27;23.65;;;10.10;;
72037;SDS011;59900;50.788;12.904;2022-12-19T15:46:56;23.23;;;9.07;;
72037;SDS011;59900;50.788;12.904;2022-12-19T15:49:22;21.03;;;8.67;;
72037;SDS011;59900;50.788;12.904;2022-12-19T15:51:48;22.52;;;8.73;;
72037;SDS011;59900;50.788;12.904;2022-12-19T15:54:15;22.70;;;8.52;;
72037;SDS011;59900;50.788;12.904;2022-12-19T15:56:41;20.73;;;7.90;;
72037;SDS011;59900;50.788;12.904;2022-12-19T15:59:53;24.02;;;8.90;;
72037;SDS011;59900;50.788;12.904;2022-12-19T16:02:01;21.30;;;9.50;;
72037;SDS011;59900;50.788;12.904;2022-12-19T16:04:27;20.85;;;8.90;;
72037;SDS011;59900;50.788;12.904;2022-12-19T16:06:53;21.10;;;9.17;;
72037;SDS011;59900;50.788;12.904;2022-12-19T16:09:19;20.23;;;8.97;;
72037;SDS011;59900;50.788;12.904;2022-12-19T16:11:47;24.20;;;8.95;;
72037;SDS011;59900;50.788;12.904;2022-12-19T16:14:14;19.42;;;8.48;;
72037;SDS011;59900;50.788;12.904;2022-12-19T16:16:39;21.57;;;7.83;;
72037;SDS011;59900;50.788;12.904;2022-12-19T16:19:47;24.00;;;9.57;;
72037;SDS011;59900;50.788;12.904;2022-12-19T16:21:55;19.83;;;8.90;;
72037;SDS011;59900;50.788;12.904;2022-12-19T16:24:21;20.75;;;9.02;;
72037;SDS011;59900;50.788;12.904;2022-12-19T16:26:50;24.02;;;10.70;;